Time;durP1;ratioP1;P1;durP2;ratioP2;P2;SDS_P1;SDS_P2;PMS_P1;PMS_P2;Temp;Humidity;BMP_temperature;BMP_pressure;BME280_temperature;BME280_humidity;BME280_pressure;Samples;Min_cycle;Max_cycle;Signal;HPM_P1;HPM_P2
2022/01/14 00:03:54;;;;;;;10.60;3.47;;;4.60;99.90;;;;;;20481370;28;20137;-45
2022/01/14 00:14:07;;;;;;;15.77;3.83;;;4.60;99.90;;;;;;20479130;28;20050;-45
2022/01/14 00:24:24;;;;;;;12.02;3.20;;;4.50;99.90;;;;;;20480675;28;20528;-45
2022/01/14 00:34:24;;;;;;;7.27;2.93;;;4.40;99.90;;;;;;20475366;28;20138;-45
2022/01/14 00:44:25;;;;;;;13.48;3.47;;;4.50;99.90;;;;;;20507017;28;20042;-46
2022/01/14 00:54:26;;;;;;;15.85;3.55;;;4.50;99.90;;;;;;20483764;28;20047;-45
2022/01/14 01:04:35;;;;;;;13.85;3.50;;;4.60;99.90;;;;;;20488038;28;20039;-45
2022/01/14 01:14:50;;;;;;;13.10;3.97;;;4.60;99.90;;;;;;20485895;28;20046;-45
2022/01/14 01:24:50;;;;;;;11.10;3.92;;;4.70;99.90;;;;;;20483258;28;20074;-45
2022/01/14 01:34:51;;;;;;;11.27;3.50;;;4.60;99.90;;;;;;20474362;28;20039;-45
2022/01/14 01:44:52;;;;;;;10.68;3.83;;;4.60;99.90;;;;;;20476625;28;20463;-45
2022/01/14 01:54:53;;;;;;;11.27;3.35;;;4.60;99.90;;;;;;20481212;28;20424;-45
2022/01/14 02:04:54;;;;;;;13.60;3.42;;;4.60;99.90;;;;;;20479969;28;20726;-45
2022/01/14 02:15:08;;;;;;;12.50;3.43;;;4.50;99.90;;;;;;20488931;28;20035;-46
2022/01/14 02:25:11;;;;;;;13.07;3.33;;;4.50;99.90;;;;;;20487283;28;21028;-45
2022/01/14 02:35:12;;;;;;;14.38;3.35;;;4.40;99.90;;;;;;20492616;28;20177;-45
2022/01/14 02:45:12;;;;;;;9.55;3.45;;;4.40;99.90;;;;;;20489426;28;20039;-45
2022/01/14 02:55:16;;;;;;;16.75;3.00;;;4.40;99.90;;;;;;20498793;28;20087;-45
2022/01/14 03:05:19;;;;;;;11.15;2.92;;;4.30;99.90;;;;;;20495492;28;20515;-45
2022/01/14 03:15:20;;;;;;;12.43;4.35;;;4.10;99.90;;;;;;20497294;28;20035;-45
2022/01/14 03:35:40;;;;;;;11.23;3.47;;;4.00;99.90;;;;;;20502470;28;20043;-45
2022/01/14 03:45:41;;;;;;;20.55;3.72;;;4.00;99.90;;;;;;20520350;28;20051;-45
2022/01/14 03:55:43;;;;;;;14.85;4.47;;;4.00;99.90;;;;;;20489589;28;20101;-45
2022/01/14 04:05:44;;;;;;;10.98;4.13;;;4.00;99.90;;;;;;20492246;28;20162;-45
2022/01/14 04:15:46;;;;;;;14.48;3.78;;;3.90;99.90;;;;;;20487019;28;20034;-45
2022/01/14 04:25:51;;;;;;;12.25;3.35;;;4.00;99.90;;;;;;20488784;28;20047;-45
2022/01/14 04:35:58;;;;;;;11.15;4.05;;;4.00;99.90;;;;;;20487224;28;20113;-45
2022/01/14 04:56:00;;;;;;;12.70;4.25;;;4.00;99.90;;;;;;20498795;28;20026;-45
2022/01/14 05:06:01;;;;;;;10.25;3.47;;;4.10;99.90;;;;;;20496833;28;20174;-45
2022/01/14 05:16:02;;;;;;;12.98;3.60;;;4.10;99.90;;;;;;20485405;28;20747;-45
2022/01/14 05:26:04;;;;;;;7.50;2.38;;;4.00;99.90;;;;;;20494234;28;20065;-45
2022/01/14 05:36:05;;;;;;;7.00;3.30;;;4.00;99.90;;;;;;20501251;28;20210;-45
2022/01/14 05:46:05;;;;;;;12.85;4.68;;;4.10;99.90;;;;;;20491445;28;20046;-45
2022/01/14 05:56:06;;;;;;;8.20;3.83;;;4.10;99.90;;;;;;20490800;28;20066;-45
2022/01/14 06:06:06;;;;;;;8.48;3.25;;;4.00;99.90;;;;;;20496163;28;20500;-45
2022/01/14 06:16:07;;;;;;;9.83;3.27;;;4.00;99.90;;;;;;20493586;28;20518;-45
2022/01/14 06:26:08;;;;;;;8.68;3.40;;;4.10;99.90;;;;;;20495122;28;20633;-45
2022/01/14 06:36:09;;;;;;;9.25;3.85;;;4.00;99.90;;;;;;20521013;28;20046;-45
2022/01/14 06:46:09;;;;;;;9.45;2.58;;;3.90;99.90;;;;;;20494970;28;20344;-45
2022/01/14 06:56:14;;;;;;;9.70;3.05;;;3.80;99.90;;;;;;20497741;28;20365;-45
2022/01/14 07:06:15;;;;;;;8.75;3.00;;;3.80;99.90;;;;;;20482519;28;20055;-45
2022/01/14 07:16:16;;;;;;;7.05;2.53;;;3.90;99.90;;;;;;20514933;28;20051;-45
2022/01/14 07:26:17;;;;;;;9.57;3.57;;;3.80;99.90;;;;;;20485516;28;20051;-45
2022/01/14 07:36:17;;;;;;;12.57;3.97;;;3.70;99.90;;;;;;20492584;28;20404;-45
2022/01/14 07:46:18;;;;;;;6.30;2.70;;;3.70;99.90;;;;;;20500281;28;20172;-45
2022/01/14 07:56:19;;;;;;;9.82;3.20;;;3.80;99.90;;;;;;20507350;28;20059;-45
2022/01/14 08:06:22;;;;;;;11.07;2.97;;;3.90;99.90;;;;;;20502611;28;20078;-45
2022/01/14 08:16:25;;;;;;;9.30;3.17;;;4.00;99.90;;;;;;20505048;28;20054;-45
2022/01/14 08:26:26;;;;;;;9.23;3.75;;;4.00;99.90;;;;;;20496585;28;20046;-45
2022/01/14 08:36:29;;;;;;;12.95;4.55;;;4.10;99.90;;;;;;20488441;28;20039;-45
2022/01/14 08:46:30;;;;;;;10.27;3.67;;;4.20;99.90;;;;;;20489427;28;20060;-45
2022/01/14 08:56:32;;;;;;;10.07;3.72;;;4.30;99.90;;;;;;20498872;28;20073;-45
2022/01/14 09:06:33;;;;;;;12.65;4.82;;;4.40;99.90;;;;;;20502879;28;20079;-45
2022/01/14 09:16:35;;;;;;;9.85;4.13;;;4.50;99.90;;;;;;20513400;28;20043;-45
2022/01/14 09:26:38;;;;;;;11.23;4.13;;;4.60;99.90;;;;;;20507080;28;20043;-45
2022/01/14 09:36:42;;;;;;;9.98;4.32;;;4.60;99.90;;;;;;20487306;28;20039;-45
2022/01/14 09:46:42;;;;;;;13.88;4.30;;;4.70;99.90;;;;;;20496725;28;20043;-45
2022/01/14 09:56:45;;;;;;;11.32;4.28;;;4.70;99.90;;;;;;20479947;28;20070;-45
2022/01/14 10:06:50;;;;;;;9.77;4.10;;;4.80;99.90;;;;;;20492443;28;20523;-45
2022/01/14 10:16:56;;;;;;;8.05;4.22;;;4.80;99.90;;;;;;20489556;28;20515;-45
2022/01/14 10:26:59;;;;;;;14.80;6.05;;;5.00;99.90;;;;;;20503873;28;20039;-45
2022/01/14 10:37:14;;;;;;;12.98;4.93;;;5.10;99.90;;;;;;20529355;28;20521;-45
2022/01/14 10:47:20;;;;;;;12.25;5.72;;;5.10;99.90;;;;;;20516085;28;20051;-46
2022/01/14 10:57:29;;;;;;;13.65;5.05;;;5.20;99.90;;;;;;20536314;28;20073;-45
2022/01/14 11:07:29;;;;;;;12.15;4.97;;;5.30;99.90;;;;;;20548507;28;20086;-46
2022/01/14 11:17:30;;;;;;;11.93;5.72;;;5.40;99.90;;;;;;20538626;28;20043;-46
2022/01/14 11:27:32;;;;;;;11.65;5.50;;;5.50;99.90;;;;;;20546014;28;20042;-45
2022/01/14 11:37:34;;;;;;;13.82;6.07;;;5.60;99.90;;;;;;20541773;28;20275;-45
2022/01/14 11:47:42;;;;;;;16.48;6.47;;;5.70;99.90;;;;;;20532641;28;20085;-45
2022/01/14 11:57:47;;;;;;;15.55;6.07;;;5.80;99.90;;;;;;20545960;28;20074;-45
2022/01/14 12:08:12;;;;;;;20.38;6.13;;;5.90;99.90;;;;;;20549768;28;20051;-45
2022/01/14 12:18:13;;;;;;;10.63;5.32;;;6.10;99.90;;;;;;20559713;28;20046;-45
2022/01/14 12:28:23;;;;;;;14.57;5.87;;;6.20;99.90;;;;;;20534359;28;20050;-45
2022/01/14 12:38:26;;;;;;;14.70;6.38;;;6.20;99.90;;;;;;20512012;28;20326;-46
2022/01/14 12:58:50;;;;;;;;;;;6.40;99.90;;;;;;20498886;28;20035;-45
2022/01/14 13:08:58;;;;;;;17.80;7.45;;;6.50;99.90;;;;;;20487010;28;19929;-46
2022/01/14 13:18:58;;;;;;;15.88;7.18;;;6.50;99.90;;;;;;20498712;28;20043;-45
2022/01/14 13:28:59;;;;;;;17.73;6.87;;;6.50;99.90;;;;;;20495841;28;20048;-46
2022/01/14 13:39:10;;;;;;;19.33;6.63;;;6.60;99.90;;;;;;20485933;28;20039;-45
2022/01/14 13:49:18;;;;;;;15.35;7.05;;;6.60;99.90;;;;;;20493210;28;20329;-45
2022/01/14 13:59:20;;;;;;;15.98;6.50;;;6.70;99.90;;;;;;20482213;28;20496;-45
2022/01/14 14:09:29;;;;;;;17.33;6.15;;;6.70;99.90;;;;;;20474682;28;20054;-45
2022/01/14 14:19:54;;;;;;;17.90;6.93;;;6.70;99.90;;;;;;20484995;28;20265;-46
2022/01/14 14:29:57;;;;;;;12.30;4.82;;;6.70;99.90;;;;;;20484655;28;20058;-46
2022/01/14 14:39:59;;;;;;;18.77;5.85;;;6.70;99.90;;;;;;20485397;28;20047;-46
2022/01/14 14:50:00;;;;;;;14.20;5.80;;;6.60;99.90;;;;;;20501947;28;20490;-43
2022/01/14 15:00:01;;;;;;;19.60;5.35;;;6.60;99.90;;;;;;20491196;28;20065;-43
2022/01/14 15:10:03;;;;;;;14.82;5.10;;;6.60;99.90;;;;;;20510428;28;20175;-43
2022/01/14 15:20:05;;;;;;;11.10;3.67;;;6.70;99.90;;;;;;20509811;28;20496;-43
2022/01/14 15:30:06;;;;;;;10.27;4.28;;;6.60;99.90;;;;;;20505780;28;20253;-43
2022/01/14 15:40:08;;;;;;;9.85;3.60;;;6.60;99.90;;;;;;20491872;28;20346;-46
2022/01/14 15:50:12;;;;;;;13.98;3.60;;;6.60;99.90;;;;;;20493324;28;20520;-45
2022/01/14 16:00:14;;;;;;;14.40;4.00;;;6.60;99.90;;;;;;20499447;28;20043;-46
2022/01/14 16:10:17;;;;;;;9.65;3.50;;;6.60;99.90;;;;;;20512352;28;20042;-46
2022/01/14 16:20:22;;;;;;;7.70;3.55;;;6.60;99.90;;;;;;20494305;28;20581;-46
2022/01/14 16:30:23;;;;;;;8.40;2.92;;;6.50;99.90;;;;;;20498988;28;20077;-46
2022/01/14 16:40:24;;;;;;;8.68;2.85;;;6.50;99.90;;;;;;20494471;28;20050;-45
2022/01/14 16:50:25;;;;;;;7.97;3.13;;;6.50;99.90;;;;;;20490804;28;20059;-45
2022/01/14 17:00:26;;;;;;;13.82;4.85;;;6.50;99.90;;;;;;20498224;28;20041;-46
2022/01/14 17:10:26;;;;;;;9.55;3.40;;;6.60;99.90;;;;;;20493516;28;20058;-45
2022/01/14 17:20:27;;;;;;;14.70;3.90;;;6.50;99.90;;;;;;20489939;28;20046;-45
2022/01/14 17:30:28;;;;;;;12.93;5.40;;;6.50;99.90;;;;;;20496637;28;20869;-45
2022/01/14 17:40:28;;;;;;;10.50;3.73;;;6.50;99.90;;;;;;20500704;28;20333;-45
2022/01/14 17:50:29;;;;;;;13.60;5.47;;;6.40;99.90;;;;;;20506443;28;20310;-45
2022/01/14 18:00:30;;;;;;;16.52;6.38;;;6.40;99.90;;;;;;20483482;28;20620;-47
2022/01/14 18:10:30;;;;;;;11.17;4.67;;;6.40;99.90;;;;;;20493207;28;20506;-47
2022/01/14 18:20:31;;;;;;;15.30;5.22;;;6.40;99.90;;;;;;20494050;28;20274;-47
2022/01/14 18:30:32;;;;;;;12.37;3.93;;;6.40;99.90;;;;;;20494029;28;20078;-46
2022/01/14 18:40:34;;;;;;;10.82;4.25;;;6.40;99.90;;;;;;20484567;28;20291;-44
2022/01/14 18:50:34;;;;;;;12.68;5.30;;;6.40;99.90;;;;;;20484384;28;20970;-45
2022/01/14 19:00:35;;;;;;;12.93;4.90;;;6.40;99.90;;;;;;20485073;28;20055;-44
2022/01/14 19:10:37;;;;;;;13.23;5.13;;;6.40;99.90;;;;;;20485953;28;20066;-44
2022/01/14 19:20:38;;;;;;;13.85;4.20;;;6.40;99.90;;;;;;20484907;28;20039;-44
2022/01/14 19:30:38;;;;;;;12.55;4.85;;;6.30;99.90;;;;;;20489023;28;20050;-44
2022/01/14 19:40:39;;;;;;;14.70;4.18;;;6.30;99.90;;;;;;20498170;28;20046;-44
2022/01/14 19:50:40;;;;;;;10.52;4.10;;;6.30;99.90;;;;;;20495825;28;20053;-44
2022/01/14 20:00:42;;;;;;;16.25;5.68;;;6.30;99.90;;;;;;20487620;28;20038;-44
2022/01/14 20:10:43;;;;;;;21.45;6.82;;;6.20;99.90;;;;;;20490580;28;20047;-44
2022/01/14 20:20:45;;;;;;;23.42;7.43;;;6.20;99.90;;;;;;20501665;28;20051;-44
2022/01/14 20:30:46;;;;;;;16.35;6.03;;;6.10;99.90;;;;;;20499569;28;20074;-44
2022/01/14 20:40:47;;;;;;;17.23;6.05;;;6.00;99.90;;;;;;20504462;28;20522;-45
2022/01/14 20:50:50;;;;;;;18.65;5.70;;;6.00;99.90;;;;;;20502135;28;20487;-44
2022/01/14 21:00:50;;;;;;;12.70;5.35;;;6.10;99.90;;;;;;20499423;28;20202;-44
2022/01/14 21:10:51;;;;;;;13.83;5.57;;;6.10;99.90;;;;;;20502219;28;20700;-44
2022/01/14 21:20:56;;;;;;;20.05;6.88;;;6.10;99.90;;;;;;20485975;28;20620;-44
2022/01/14 21:30:56;;;;;;;17.70;6.57;;;6.10;99.90;;;;;;20491430;28;20101;-44
2022/01/14 21:40:58;;;;;;;22.40;7.35;;;6.10;99.90;;;;;;20495001;28;20027;-44
2022/01/14 21:50:59;;;;;;;18.50;6.40;;;6.10;99.90;;;;;;20538653;28;20475;-45
2022/01/14 22:01:00;;;;;;;19.90;7.00;;;6.00;99.90;;;;;;20561985;28;20038;-44
2022/01/14 22:11:00;;;;;;;16.63;6.60;;;6.00;99.90;;;;;;20562751;28;20046;-44
2022/01/14 22:21:01;;;;;;;23.52;7.05;;;5.90;99.90;;;;;;20554592;28;20298;-44
2022/01/14 22:31:02;;;;;;;24.45;7.13;;;5.90;99.90;;;;;;20560459;28;20042;-44
2022/01/14 22:41:08;;;;;;;14.63;7.00;;;5.90;99.90;;;;;;20557864;28;20046;-44
2022/01/14 22:51:09;;;;;;;16.52;6.00;;;5.90;99.90;;;;;;20555083;28;20038;-44
2022/01/14 23:01:10;;;;;;;19.27;7.10;;;5.80;99.90;;;;;;20552644;28;20043;-44
2022/01/14 23:11:11;;;;;;;24.77;8.00;;;5.80;99.90;;;;;;20569198;28;20042;-44
2022/01/14 23:21:11;;;;;;;19.67;7.17;;;5.80;99.90;;;;;;20566354;28;20045;-44
2022/01/14 23:31:12;;;;;;;23.63;7.35;;;5.80;99.90;;;;;;20572931;28;20293;-44
2022/01/14 23:41:16;;;;;;;19.70;6.32;;;5.80;99.90;;;;;;20561506;28;20047;-44
2022/01/14 23:51:17;;;;;;;18.40;6.65;;;5.70;99.90;;;;;;20561490;28;20121;-44
